Time;durP1;ratioP1;P1;durP2;ratioP2;P2;SDS_P1;SDS_P2;PMS_P1;PMS_P2;Temp;Humidity;BMP_temperature;BMP_pressure;BME280_temperature;BME280_humidity;BME280_pressure;Samples;Min_cycle;Max_cycle;Signal;HPM_P1;HPM_P2
2023/08/12 00:01:50;;;;;;;2.10;1.90;;;18.80;99.90;;;;;;4986500;28;20073;-67
2023/08/12 00:04:16;;;;;;;1.85;1.75;;;18.80;99.90;;;;;;4984995;28;20038;-67
2023/08/12 00:06:43;;;;;;;2.05;1.80;;;18.80;99.90;;;;;;4992346;28;20125;-67
2023/08/12 00:09:11;;;;;;;2.20;2.00;;;18.80;99.90;;;;;;4994254;28;20038;-67
2023/08/12 00:11:37;;;;;;;1.92;1.83;;;18.80;99.90;;;;;;4995762;28;20677;-67
2023/08/12 00:14:04;;;;;;;3.53;1.95;;;18.80;99.90;;;;;;4990419;28;20034;-67
2023/08/12 00:16:30;;;;;;;2.83;1.60;;;18.80;99.90;;;;;;4979532;28;20034;-67
2023/08/12 00:18:56;;;;;;;2.17;1.92;;;18.80;99.90;;;;;;4990115;28;20435;-67
2023/08/12 00:21:21;;;;;;;2.05;1.85;;;18.80;99.90;;;;;;4985424;28;20026;-67
2023/08/12 00:23:49;;;;;;;2.88;1.95;;;18.80;99.90;;;;;;4993627;28;20105;-67
2023/08/12 00:26:15;;;;;;;2.03;1.83;;;18.80;99.90;;;;;;4998657;28;20670;-67
2023/08/12 00:28:41;;;;;;;2.45;1.50;;;18.80;99.90;;;;;;4976570;28;20034;-67
2023/08/12 00:31:07;;;;;;;3.90;2.00;;;18.80;99.90;;;;;;4972400;28;20038;-67
2023/08/12 00:33:33;;;;;;;4.13;2.03;;;18.80;99.90;;;;;;4987469;28;20041;-67
2023/08/12 00:35:59;;;;;;;3.20;2.20;;;18.80;99.90;;;;;;4969446;28;20053;-67
2023/08/12 00:38:25;;;;;;;1.70;1.60;;;18.80;99.90;;;;;;4967316;28;20510;-67
2023/08/12 00:40:51;;;;;;;2.50;1.70;;;18.80;99.90;;;;;;4989523;28;20513;-67
2023/08/12 00:43:17;;;;;;;2.50;2.20;;;18.80;99.90;;;;;;4997444;28;20042;-67
2023/08/12 00:45:43;;;;;;;2.03;1.88;;;18.80;99.90;;;;;;4994618;28;20744;-67
2023/08/12 00:48:11;;;;;;;2.28;1.80;;;18.80;99.90;;;;;;4976863;28;20046;-67
2023/08/12 00:50:37;;;;;;;3.88;2.00;;;18.80;99.90;;;;;;4981826;28;20530;-67
2023/08/12 00:53:05;;;;;;;1.90;1.75;;;18.80;99.90;;;;;;4985268;28;20034;-67
2023/08/12 00:55:35;;;;;;;2.22;1.90;;;18.80;99.90;;;;;;4973679;28;20064;-67
2023/08/12 00:58:02;;;;;;;4.93;1.80;;;18.80;99.90;;;;;;4974296;28;20120;-67
2023/08/12 01:00:28;;;;;;;5.35;2.22;;;18.80;99.90;;;;;;4982074;28;20128;-67
2023/08/12 01:02:56;;;;;;;2.17;1.98;;;18.80;99.90;;;;;;5000457;28;20456;-66
2023/08/12 01:05:22;;;;;;;2.13;1.92;;;18.70;99.90;;;;;;4979230;28;20045;-67
2023/08/12 01:07:48;;;;;;;2.55;1.98;;;18.80;99.90;;;;;;4975322;28;20182;-67
2023/08/12 01:10:16;;;;;;;2.28;1.80;;;18.70;99.90;;;;;;4994714;28;20731;-67
2023/08/12 01:13:29;;;;;;;2.20;2.03;;;18.80;99.90;;;;;;4986319;28;20035;-67
2023/08/12 01:15:57;;;;;;;2.05;1.77;;;18.70;99.90;;;;;;4969600;28;20022;-67
2023/08/12 01:18:24;;;;;;;1.85;1.75;;;18.70;99.90;;;;;;4965198;28;20034;-67
2023/08/12 01:20:50;;;;;;;2.05;1.85;;;18.70;99.90;;;;;;4971139;28;20023;-67
2023/08/12 01:23:16;;;;;;;4.20;1.95;;;18.70;99.90;;;;;;4975040;28;20491;-67
2023/08/12 01:25:42;;;;;;;2.03;1.83;;;18.70;99.90;;;;;;4978065;28;20034;-67
2023/08/12 01:28:08;;;;;;;3.00;2.28;;;18.60;99.90;;;;;;4972081;28;20121;-67
2023/08/12 01:30:43;;;;;;;2.95;2.10;;;18.60;99.90;;;;;;4971148;28;20088;-67
2023/08/12 01:33:24;;;;;;;1.92;1.65;;;18.60;99.90;;;;;;4962823;28;20038;-67
2023/08/12 01:36:07;;;;;;;2.75;1.70;;;18.60;99.90;;;;;;4996248;28;20121;-67
2023/08/12 01:38:35;;;;;;;2.28;2.03;;;18.50;99.90;;;;;;4993763;28;20142;-67
2023/08/12 01:41:01;;;;;;;2.92;2.25;;;18.50;99.90;;;;;;4996009;28;20512;-67
2023/08/12 01:43:28;;;;;;;2.72;2.15;;;18.50;99.90;;;;;;4968819;28;20166;-67
2023/08/12 01:45:54;;;;;;;2.67;2.03;;;18.50;99.90;;;;;;4986760;28;20039;-67
2023/08/12 01:48:22;;;;;;;2.05;1.88;;;18.50;99.90;;;;;;4992954;28;20042;-67
2023/08/12 01:50:48;;;;;;;3.55;2.08;;;18.50;99.90;;;;;;4989249;28;20645;-67
2023/08/12 01:53:14;;;;;;;2.92;2.20;;;18.50;99.90;;;;;;4982711;28;20516;-67
2023/08/12 01:55:44;;;;;;;2.30;2.00;;;18.50;99.90;;;;;;4988441;28;20023;-67
2023/08/12 01:58:10;;;;;;;3.22;2.38;;;18.50;99.90;;;;;;4976061;28;20030;-67
2023/08/12 02:00:36;;;;;;;2.85;2.10;;;18.50;99.90;;;;;;4973705;28;20038;-67
2023/08/12 02:03:02;;;;;;;3.47;2.20;;;18.50;99.90;;;;;;4991144;28;20103;-67
2023/08/12 02:05:28;;;;;;;2.33;2.10;;;18.60;99.90;;;;;;4970209;28;20137;-67
2023/08/12 02:07:54;;;;;;;2.53;2.03;;;18.60;99.90;;;;;;4970023;28;20133;-67
2023/08/12 02:10:20;;;;;;;2.05;1.90;;;18.60;99.90;;;;;;4994078;28;20430;-67
2023/08/12 02:12:45;;;;;;;2.97;2.10;;;18.60;99.90;;;;;;4984052;28;20406;-67
2023/08/12 02:15:11;;;;;;;2.63;2.20;;;18.60;99.90;;;;;;4997538;28;20486;-67
2023/08/12 02:17:37;;;;;;;5.07;2.17;;;18.60;99.90;;;;;;4963147;28;20030;-67
2023/08/12 02:20:04;;;;;;;4.22;2.25;;;18.60;99.90;;;;;;4989832;28;20046;-67
2023/08/12 02:22:30;;;;;;;4.43;2.50;;;18.60;99.90;;;;;;4989955;28;20030;-67
2023/08/12 02:24:56;;;;;;;2.58;2.35;;;18.60;99.90;;;;;;4987847;28;20035;-67
2023/08/12 02:27:21;;;;;;;2.60;2.38;;;18.60;99.90;;;;;;4990191;28;20029;-67
2023/08/12 02:29:47;;;;;;;3.13;2.30;;;18.60;99.90;;;;;;4980991;28;20042;-67
2023/08/12 02:32:13;;;;;;;5.20;2.30;;;18.60;99.90;;;;;;4993379;28;20551;-67
2023/08/12 02:34:39;;;;;;;2.47;2.03;;;18.60;99.90;;;;;;4977664;28;20514;-67
2023/08/12 02:37:04;;;;;;;2.75;2.08;;;18.60;99.90;;;;;;4973850;28;20120;-67
2023/08/12 02:39:30;;;;;;;3.28;1.90;;;18.60;99.90;;;;;;4979026;28;20033;-67
2023/08/12 02:41:56;;;;;;;3.75;2.38;;;18.60;99.90;;;;;;4990933;28;20043;-67
2023/08/12 02:44:22;;;;;;;4.32;2.30;;;18.60;99.90;;;;;;4958757;28;20045;-67
2023/08/12 02:46:48;;;;;;;3.55;2.63;;;18.50;99.90;;;;;;4992817;28;20042;-67
2023/08/12 02:49:14;;;;;;;3.25;2.22;;;18.50;99.90;;;;;;4993566;28;20092;-67
2023/08/12 02:51:39;;;;;;;3.65;2.40;;;18.50;99.90;;;;;;4994980;28;20045;-67
2023/08/12 02:54:05;;;;;;;2.75;2.30;;;18.50;99.90;;;;;;4975668;28;20033;-67
2023/08/12 02:56:31;;;;;;;2.95;2.25;;;18.50;99.90;;;;;;4971373;28;20046;-67
2023/08/12 02:58:57;;;;;;;2.88;2.50;;;18.40;99.90;;;;;;4961092;28;20070;-67
2023/08/12 03:01:22;;;;;;;4.18;2.47;;;18.40;99.90;;;;;;4986424;28;20049;-67
2023/08/12 03:03:48;;;;;;;3.50;2.90;;;18.40;99.90;;;;;;4970355;28;20165;-68
2023/08/12 03:06:14;;;;;;;2.40;1.90;;;18.40;99.90;;;;;;4973956;28;20037;-67
2023/08/12 03:08:40;;;;;;;5.80;2.53;;;18.40;99.90;;;;;;4988268;28;20027;-67
2023/08/12 03:11:07;;;;;;;3.05;2.50;;;18.40;99.90;;;;;;4973614;28;20037;-67
2023/08/12 03:13:33;;;;;;;6.22;2.72;;;18.30;99.90;;;;;;4971148;28;20540;-68
2023/08/12 03:15:58;;;;;;;5.57;2.75;;;18.30;99.90;;;;;;4985721;28;20053;-67
2023/08/12 03:18:25;;;;;;;2.75;2.40;;;18.30;99.90;;;;;;4967145;28;20614;-67
2023/08/12 03:20:51;;;;;;;5.70;2.63;;;18.30;99.90;;;;;;4973562;28;20125;-67
2023/08/12 03:23:17;;;;;;;2.70;2.50;;;18.30;99.90;;;;;;4983464;28;20164;-67
2023/08/12 03:25:43;;;;;;;2.92;2.33;;;18.30;99.90;;;;;;4981999;28;20513;-67
2023/08/12 03:28:09;;;;;;;2.95;2.20;;;18.20;99.90;;;;;;4969336;28;20092;-67
2023/08/12 03:30:36;;;;;;;3.95;2.40;;;18.20;99.90;;;;;;4974857;28;20049;-67
2023/08/12 03:33:03;;;;;;;3.53;2.70;;;18.20;99.90;;;;;;4984238;28;20037;-67
2023/08/12 03:35:32;;;;;;;3.88;2.75;;;18.20;99.90;;;;;;4968651;28;20018;-67
2023/08/12 03:37:58;;;;;;;3.22;2.50;;;18.20;99.90;;;;;;4974554;28;20112;-67
2023/08/12 03:40:27;;;;;;;4.97;2.72;;;18.20;99.90;;;;;;4974951;28;20038;-67
2023/08/12 03:42:53;;;;;;;3.55;2.58;;;18.20;99.90;;;;;;4972638;28;20681;-67
2023/08/12 03:45:22;;;;;;;3.15;2.72;;;18.20;99.90;;;;;;4971838;28;20049;-67
2023/08/12 03:47:47;;;;;;;2.67;2.47;;;18.20;99.90;;;;;;4974403;28;20125;-67
2023/08/12 03:50:13;;;;;;;4.25;2.60;;;18.20;99.90;;;;;;4974478;28;20040;-67
2023/08/12 03:52:39;;;;;;;3.53;2.78;;;18.20;99.90;;;;;;4986492;28;20509;-67
2023/08/12 03:55:05;;;;;;;6.63;2.88;;;18.20;99.90;;;;;;4987247;28;20026;-67
2023/08/12 03:57:32;;;;;;;3.78;2.60;;;18.20;99.90;;;;;;4970404;28;20038;-67
2023/08/12 03:59:58;;;;;;;2.85;2.65;;;18.10;99.90;;;;;;4976678;28;20052;-67
2023/08/12 04:02:23;;;;;;;3.47;2.80;;;18.10;99.90;;;;;;4969629;28;20053;-67
2023/08/12 04:04:49;;;;;;;4.65;2.80;;;18.00;99.90;;;;;;4988732;28;20049;-67
2023/08/12 04:07:15;;;;;;;5.28;2.75;;;18.00;99.90;;;;;;4987833;28;20038;-67
2023/08/12 04:09:41;;;;;;;2.60;2.40;;;18.00;99.90;;;;;;4984159;28;20596;-67
2023/08/12 04:12:07;;;;;;;5.00;2.88;;;18.00;99.90;;;;;;4967323;28;20066;-67
2023/08/12 04:14:33;;;;;;;4.25;2.80;;;18.00;99.90;;;;;;4978820;28;20053;-67
2023/08/12 04:16:59;;;;;;;3.10;2.80;;;18.00;99.90;;;;;;4976107;28;20648;-67
2023/08/12 04:19:24;;;;;;;3.05;2.75;;;18.10;99.90;;;;;;4970305;28;20104;-67
2023/08/12 04:21:50;;;;;;;4.00;2.55;;;18.10;99.90;;;;;;4973704;28;20043;-67
2023/08/12 04:24:17;;;;;;;5.70;2.92;;;18.10;99.90;;;;;;4973667;28;20034;-67
2023/08/12 04:26:42;;;;;;;3.95;2.90;;;18.20;99.90;;;;;;4991540;28;20084;-67
2023/08/12 04:29:09;;;;;;;3.58;3.03;;;18.30;99.90;;;;;;4982491;28;20038;-67
2023/08/12 04:31:38;;;;;;;3.10;2.58;;;18.30;99.90;;;;;;4975054;28;20038;-67
2023/08/12 04:34:04;;;;;;;3.40;3.08;;;18.30;99.90;;;;;;4977317;28;20030;-67
2023/08/12 04:36:31;;;;;;;3.38;2.75;;;18.40;99.90;;;;;;4973535;28;20034;-67
2023/08/12 04:38:59;;;;;;;3.40;2.83;;;18.40;99.90;;;;;;4977843;28;20457;-67
2023/08/12 04:41:25;;;;;;;4.03;2.90;;;18.50;99.90;;;;;;4974082;28;20034;-67
2023/08/12 04:43:52;;;;;;;3.20;2.90;;;18.50;99.90;;;;;;4974018;28;20034;-66
2023/08/12 04:46:18;;;;;;;2.95;2.47;;;18.50;99.90;;;;;;4971511;28;20215;-67
2023/08/12 04:48:45;;;;;;;3.85;2.65;;;18.60;99.90;;;;;;4989475;28;20398;-68
2023/08/12 04:51:11;;;;;;;3.22;2.40;;;18.70;99.90;;;;;;4980218;28;20034;-67
2023/08/12 04:53:37;;;;;;;4.57;3.03;;;18.80;99.90;;;;;;4993802;28;20049;-67
2023/08/12 04:56:03;;;;;;;2.85;2.53;;;18.80;99.90;;;;;;4990159;28;20376;-67
2023/08/12 04:58:30;;;;;;;3.70;2.78;;;18.90;99.90;;;;;;4974164;28;20040;-67
2023/08/12 05:00:57;;;;;;;4.30;2.72;;;19.00;99.90;;;;;;4978179;28;20549;-67
2023/08/12 05:03:23;;;;;;;2.92;2.72;;;19.10;99.90;;;;;;4975528;28;20031;-67
2023/08/12 05:05:52;;;;;;;3.85;2.80;;;19.20;99.90;;;;;;4972737;28;20038;-67
2023/08/12 05:08:18;;;;;;;4.63;2.75;;;19.20;99.90;;;;;;4979144;28;20034;-67
2023/08/12 05:10:49;;;;;;;5.18;3.30;;;19.30;99.90;;;;;;4981174;28;20042;-67
2023/08/12 05:13:15;;;;;;;3.72;2.78;;;19.30;99.90;;;;;;4971862;28;20137;-66
2023/08/12 05:15:41;;;;;;;3.33;2.40;;;19.40;99.90;;;;;;4974876;28;20045;-67
2023/08/12 05:18:08;;;;;;;3.15;2.83;;;19.40;99.90;;;;;;4978000;28;20118;-67
2023/08/12 05:20:33;;;;;;;3.05;2.38;;;19.50;99.90;;;;;;4989834;28;20485;-67
2023/08/12 05:22:59;;;;;;;5.07;2.80;;;19.50;99.90;;;;;;4993154;28;20049;-67
2023/08/12 05:25:27;;;;;;;3.00;2.50;;;19.60;99.90;;;;;;4988298;28;20042;-67
2023/08/12 05:27:53;;;;;;;3.72;2.70;;;19.60;99.90;;;;;;4989525;28;20031;-67
2023/08/12 05:30:19;;;;;;;3.17;2.25;;;19.70;99.90;;;;;;4993189;28;20540;-67
2023/08/12 05:32:45;;;;;;;4.55;2.58;;;19.80;99.90;;;;;;4999350;28;20506;-67
2023/08/12 05:35:10;;;;;;;4.75;2.90;;;19.80;99.90;;;;;;4994976;28;20919;-67
2023/08/12 05:37:36;;;;;;;2.75;2.53;;;19.90;99.90;;;;;;4993741;28;20034;-67
2023/08/12 05:40:04;;;;;;;4.22;2.90;;;20.00;99.90;;;;;;4988885;28;20588;-68
2023/08/12 05:42:29;;;;;;;3.30;2.72;;;20.10;99.90;;;;;;4987255;28;20450;-68
2023/08/12 05:44:55;;;;;;;3.38;2.75;;;20.10;99.90;;;;;;5001006;28;20034;-68
2023/08/12 05:47:21;;;;;;;4.78;2.38;;;20.30;99.90;;;;;;4993137;28;20194;-67
2023/08/12 05:49:46;;;;;;;4.47;2.53;;;20.40;99.90;;;;;;5000097;28;20046;-67
2023/08/12 05:52:12;;;;;;;3.97;2.70;;;20.40;99.90;;;;;;4994880;28;20038;-67
2023/08/12 05:54:38;;;;;;;5.18;2.55;;;20.50;99.90;;;;;;4989734;28;20034;-67
2023/08/12 05:57:04;;;;;;;3.72;2.65;;;20.60;99.90;;;;;;4989184;28;20030;-68
2023/08/12 05:59:30;;;;;;;4.10;2.83;;;20.70;99.90;;;;;;4991082;28;20104;-67
2023/08/12 06:01:55;;;;;;;4.22;2.50;;;20.70;99.90;;;;;;4988324;28;20096;-67
2023/08/12 06:04:21;;;;;;;4.13;3.00;;;20.80;99.90;;;;;;4991674;28;20110;-67
2023/08/12 06:06:47;;;;;;;3.75;3.00;;;20.80;99.90;;;;;;4975123;28;20061;-67
2023/08/12 06:09:13;;;;;;;3.53;2.63;;;20.90;99.90;;;;;;4994530;28;20045;-67
2023/08/12 06:11:38;;;;;;;5.15;3.00;;;20.90;99.90;;;;;;4972352;28;20034;-68
2023/08/12 06:14:04;;;;;;;4.38;2.60;;;21.00;99.90;;;;;;4983162;28;20040;-68
2023/08/12 06:16:30;;;;;;;3.67;2.80;;;21.00;99.90;;;;;;4982701;28;20034;-67
2023/08/12 06:18:56;;;;;;;3.15;2.38;;;21.00;99.90;;;;;;4996839;28;20266;-68
2023/08/12 06:21:21;;;;;;;2.40;2.20;;;21.10;99.90;;;;;;4997725;28;20038;-68
2023/08/12 06:23:47;;;;;;;3.78;2.88;;;21.10;99.90;;;;;;4997019;28;20033;-68
2023/08/12 06:26:13;;;;;;;4.30;2.85;;;21.10;99.90;;;;;;4986515;28;20041;-68
2023/08/12 06:28:38;;;;;;;3.47;2.63;;;21.10;99.90;;;;;;4989463;28;20100;-67
2023/08/12 06:31:04;;;;;;;4.55;3.03;;;21.20;99.90;;;;;;4984285;28;20109;-68
2023/08/12 06:33:30;;;;;;;3.28;2.90;;;21.20;99.90;;;;;;4987240;28;20034;-68
2023/08/12 06:35:56;;;;;;;3.08;2.65;;;21.30;99.90;;;;;;4992441;28;20037;-67
2023/08/12 06:38:22;;;;;;;3.70;2.80;;;21.40;99.90;;;;;;4997966;28;20033;-68
2023/08/12 06:40:47;;;;;;;4.85;2.50;;;21.50;99.90;;;;;;4992363;28;20038;-68
2023/08/12 06:43:13;;;;;;;5.78;2.80;;;21.50;99.90;;;;;;4993945;28;20113;-68
2023/08/12 06:45:39;;;;;;;4.63;3.20;;;21.60;99.90;;;;;;4995667;28;20033;-68
2023/08/12 06:48:05;;;;;;;5.72;2.85;;;21.70;99.90;;;;;;4992077;28;20042;-68
2023/08/12 06:50:33;;;;;;;4.57;2.80;;;21.90;99.90;;;;;;4988642;28;20034;-68
2023/08/12 06:52:59;;;;;;;3.53;2.75;;;21.90;99.90;;;;;;4988732;28;20508;-68
2023/08/12 06:55:25;;;;;;;6.22;2.50;;;22.00;99.90;;;;;;5001518;28;20065;-67
2023/08/12 06:57:50;;;;;;;5.43;2.88;;;22.10;99.90;;;;;;4997035;28;20094;-68
2023/08/12 07:00:16;;;;;;;4.43;2.90;;;22.30;99.90;;;;;;4979018;28;20043;-68
2023/08/12 07:02:42;;;;;;;5.05;2.90;;;22.30;99.90;;;;;;4974348;28;20845;-68
2023/08/12 07:05:08;;;;;;;3.10;2.70;;;22.30;99.90;;;;;;4989208;28;20766;-68
2023/08/12 07:07:34;;;;;;;4.28;2.17;;;22.40;99.90;;;;;;4987157;28;20042;-68
2023/08/12 07:10:00;;;;;;;4.97;2.40;;;22.50;99.90;;;;;;4986584;28;20034;-68
2023/08/12 07:12:26;;;;;;;5.93;2.70;;;22.60;99.90;;;;;;4984326;28;20597;-68
2023/08/12 07:14:52;;;;;;;4.28;2.40;;;22.60;99.90;;;;;;4982012;28;20053;-68
2023/08/12 07:17:18;;;;;;;3.20;2.83;;;22.70;99.90;;;;;;4994602;28;20034;-68
2023/08/12 07:19:43;;;;;;;4.55;2.88;;;22.90;99.90;;;;;;4995524;28;20038;-68
2023/08/12 07:22:09;;;;;;;4.53;2.80;;;23.00;99.90;;;;;;4989052;28;20038;-67
2023/08/12 07:24:35;;;;;;;3.22;2.92;;;23.00;99.90;;;;;;4995573;28;20046;-68
2023/08/12 07:27:01;;;;;;;4.70;2.60;;;23.00;99.90;;;;;;4968753;28;20585;-68
2023/08/12 07:29:27;;;;;;;3.75;2.42;;;23.10;99.90;;;;;;4984923;28;20124;-68
2023/08/12 07:31:53;;;;;;;2.65;2.45;;;23.00;99.90;;;;;;4989572;28;20119;-68
2023/08/12 07:34:19;;;;;;;4.78;2.95;;;23.00;99.90;;;;;;4987037;28;20035;-68
2023/08/12 07:36:45;;;;;;;4.10;2.75;;;23.00;99.90;;;;;;4994797;28;20045;-68
2023/08/12 07:39:11;;;;;;;4.63;2.83;;;23.00;99.90;;;;;;4989228;28;20761;-68
2023/08/12 07:41:37;;;;;;;5.80;3.08;;;23.00;99.90;;;;;;4987560;28;20109;-68
2023/08/12 07:44:04;;;;;;;3.85;2.60;;;23.00;99.90;;;;;;4985122;28;20165;-68
2023/08/12 07:46:29;;;;;;;4.32;2.88;;;22.90;99.90;;;;;;5000073;28;20038;-68
2023/08/12 07:48:56;;;;;;;5.00;2.65;;;22.90;99.90;;;;;;4995182;28;20034;-68
2023/08/12 07:51:22;;;;;;;4.50;2.70;;;22.90;99.90;;;;;;4994265;28;20088;-67
2023/08/12 07:53:48;;;;;;;6.22;2.55;;;23.00;99.90;;;;;;4994346;28;20026;-68
2023/08/12 07:56:14;;;;;;;3.28;2.67;;;23.00;99.90;;;;;;4988753;28;20557;-68
2023/08/12 07:58:39;;;;;;;3.38;2.70;;;22.90;99.90;;;;;;4988112;28;20153;-68
2023/08/12 08:01:06;;;;;;;2.97;2.58;;;22.90;99.90;;;;;;4986763;28;20030;-68
2023/08/12 08:03:31;;;;;;;4.22;2.80;;;22.80;99.90;;;;;;4985394;28;20125;-68
2023/08/12 08:05:57;;;;;;;3.40;2.72;;;22.80;99.90;;;;;;4995196;28;20124;-68
2023/08/12 08:08:23;;;;;;;5.22;3.05;;;22.60;99.90;;;;;;4995636;28;20049;-68
2023/08/12 08:10:49;;;;;;;4.38;2.97;;;22.60;99.90;;;;;;4991390;28;20034;-68
2023/08/12 08:13:14;;;;;;;3.97;2.83;;;22.60;99.90;;;;;;4991023;28;20034;-68
2023/08/12 08:15:40;;;;;;;2.67;2.47;;;22.50;99.90;;;;;;4962303;28;20030;-68
2023/08/12 08:18:06;;;;;;;3.60;2.60;;;22.50;99.90;;;;;;4982516;28;20039;-68
2023/08/12 08:20:32;;;;;;;2.92;2.42;;;22.50;99.90;;;;;;4989590;28;20044;-68
2023/08/12 08:22:57;;;;;;;3.25;2.70;;;22.40;99.90;;;;;;4990969;28;20057;-68
2023/08/12 08:25:23;;;;;;;4.60;3.10;;;22.40;99.90;;;;;;4998584;28;20041;-68
2023/08/12 08:27:49;;;;;;;3.97;2.92;;;22.40;99.90;;;;;;4982280;28;20534;-68
2023/08/12 08:30:15;;;;;;;5.82;3.10;;;22.50;99.90;;;;;;4988218;28;20061;-68
2023/08/12 08:32:40;;;;;;;3.53;2.65;;;22.50;99.90;;;;;;4988012;28;20049;-68
2023/08/12 08:35:06;;;;;;;3.53;2.95;;;22.40;99.90;;;;;;4987263;28;20040;-68
2023/08/12 08:37:32;;;;;;;3.67;3.08;;;22.40;99.90;;;;;;4989913;28;20046;-68
2023/08/12 08:39:58;;;;;;;3.80;2.70;;;22.40;99.90;;;;;;4995076;28;20052;-68
2023/08/12 08:42:24;;;;;;;7.55;2.88;;;22.40;99.90;;;;;;4995943;28;20070;-68
2023/08/12 08:44:53;;;;;;;8.00;3.10;;;22.40;99.90;;;;;;4992265;28;20053;-68
2023/08/12 08:47:27;;;;;;;5.68;3.28;;;22.50;99.90;;;;;;4993048;28;20061;-67
2023/08/12 08:49:56;;;;;;;4.85;3.22;;;22.60;99.90;;;;;;4993398;28;20041;-66
2023/08/12 08:52:23;;;;;;;6.75;3.00;;;22.60;99.90;;;;;;4978608;28;20077;-67
2023/08/12 08:54:49;;;;;;;6.32;4.00;;;22.60;99.90;;;;;;4991637;28;20064;-66
2023/08/12 08:57:15;;;;;;;6.85;3.63;;;22.70;99.90;;;;;;4974660;28;20397;-66
2023/08/12 08:59:41;;;;;;;3.88;3.47;;;22.80;99.90;;;;;;4974240;28;20042;-67
2023/08/12 09:02:15;;;;;;;4.80;3.50;;;22.90;99.90;;;;;;4987396;28;20045;-67
2023/08/12 09:04:41;;;;;;;3.75;2.70;;;23.00;99.90;;;;;;4991991;28;20097;-67
2023/08/12 09:07:08;;;;;;;4.00;3.10;;;23.20;99.90;;;;;;4989412;28;20137;-67
2023/08/12 09:09:35;;;;;;;4.40;3.05;;;23.30;99.90;;;;;;4971182;28;20039;-67
2023/08/12 09:12:03;;;;;;;5.00;3.90;;;23.40;99.90;;;;;;4983604;28;20117;-67
2023/08/12 09:14:29;;;;;;;6.95;3.92;;;23.50;99.90;;;;;;5000510;28;20109;-67
2023/08/12 09:16:56;;;;;;;5.82;3.70;;;23.50;99.90;;;;;;4998425;28;20884;-67
2023/08/12 09:19:22;;;;;;;3.65;2.80;;;23.40;99.90;;;;;;5001874;28;20486;-67
2023/08/12 09:21:56;;;;;;;4.15;3.33;;;23.50;99.90;;;;;;4997630;28;20035;-68
2023/08/12 09:24:27;;;;;;;3.45;3.15;;;23.40;99.90;;;;;;4987643;28;20030;-68
2023/08/12 09:26:55;;;;;;;6.43;3.00;;;23.60;99.90;;;;;;4991019;28;20038;-67
2023/08/12 09:29:29;;;;;;;4.38;3.33;;;23.60;99.90;;;;;;4987589;28;20038;-67
2023/08/12 09:32:04;;;;;;;5.40;3.53;;;23.70;99.90;;;;;;4992041;28;20117;-67
2023/08/12 09:34:31;;;;;;;8.63;3.17;;;23.80;99.90;;;;;;4998582;28;20544;-67
2023/08/12 09:36:57;;;;;;;4.55;3.40;;;23.80;99.90;;;;;;4990332;28;20041;-67
2023/08/12 09:39:22;;;;;;;5.07;3.45;;;23.80;99.90;;;;;;4974814;28;20039;-67
2023/08/12 09:41:51;;;;;;;7.07;3.47;;;23.80;99.90;;;;;;5000714;28;20042;-67
2023/08/12 09:44:16;;;;;;;3.65;3.10;;;23.80;99.90;;;;;;4990872;28;20057;-67
2023/08/12 09:46:42;;;;;;;4.82;2.90;;;23.70;99.90;;;;;;4992740;28;20769;-67
2023/08/12 09:49:08;;;;;;;3.42;3.13;;;23.70;99.90;;;;;;4984802;28;20863;-67
2023/08/12 09:51:37;;;;;;;3.25;2.95;;;23.70;99.90;;;;;;4985562;28;20054;-67
2023/08/12 09:54:04;;;;;;;3.92;3.45;;;23.70;99.90;;;;;;4983309;28;20031;-67
2023/08/12 09:56:36;;;;;;;5.25;3.85;;;23.80;99.90;;;;;;4993061;28;20100;-67
2023/08/12 09:59:06;;;;;;;5.00;3.35;;;23.80;99.90;;;;;;4981606;28;20030;-67
2023/08/12 10:01:33;;;;;;;4.47;3.50;;;23.80;99.90;;;;;;4969553;28;20031;-67
2023/08/12 10:03:59;;;;;;;5.90;3.35;;;23.90;99.90;;;;;;4998655;28;20036;-68
2023/08/12 10:06:25;;;;;;;4.30;3.20;;;24.00;99.90;;;;;;4993217;28;20034;-67
2023/08/12 10:08:52;;;;;;;5.28;3.60;;;24.00;99.90;;;;;;4990675;28;20542;-68
2023/08/12 10:11:18;;;;;;;3.38;3.05;;;24.10;99.90;;;;;;4997285;28;20472;-68
2023/08/12 10:13:44;;;;;;;4.78;3.40;;;24.10;99.90;;;;;;4996707;28;20877;-68
2023/08/12 10:16:11;;;;;;;4.82;3.58;;;24.10;99.90;;;;;;4991468;28;20038;-68
2023/08/12 10:18:40;;;;;;;4.03;3.30;;;24.30;99.90;;;;;;4996685;28;20525;-68
2023/08/12 10:21:13;;;;;;;6.53;3.35;;;24.30;99.90;;;;;;4998652;28;20030;-67
2023/08/12 10:23:41;;;;;;;6.50;3.50;;;24.50;99.90;;;;;;4994836;28;20038;-67
2023/08/12 10:26:07;;;;;;;5.82;3.58;;;24.50;99.90;;;;;;4994168;28;20421;-67
2023/08/12 10:28:36;;;;;;;6.05;3.35;;;24.50;99.90;;;;;;4997785;28;20037;-67
2023/08/12 10:31:06;;;;;;;5.63;3.53;;;24.70;99.90;;;;;;4990161;28;20194;-67
2023/08/12 10:33:39;;;;;;;5.07;3.05;;;24.80;99.90;;;;;;4990519;28;20026;-67
2023/08/12 10:36:06;;;;;;;4.68;3.00;;;24.80;99.90;;;;;;4991419;28;20030;-67
2023/08/12 10:38:33;;;;;;;3.90;3.50;;;24.90;99.90;;;;;;4992560;28;20035;-67
2023/08/12 10:41:22;;;;;;;4.72;3.70;;;25.00;99.90;;;;;;4968909;28;20828;-68
2023/08/12 10:43:52;;;;;;;6.03;2.85;;;25.00;99.90;;;;;;4985041;28;20062;-67
2023/08/12 10:46:32;;;;;;;5.60;2.95;;;25.00;99.90;;;;;;4986944;28;20048;-68
2023/08/12 10:49:18;;;;;;;6.38;3.20;;;25.00;99.90;;;;;;4996235;28;20035;-68
2023/08/12 10:51:46;;;;;;;4.68;3.05;;;25.00;99.90;;;;;;4988170;28;20038;-68
2023/08/12 10:54:22;;;;;;;5.82;3.95;;;25.00;99.90;;;;;;4977293;28;20748;-67
2023/08/12 10:57:04;;;;;;;3.75;3.17;;;25.00;99.90;;;;;;4982472;28;20123;-68
2023/08/12 10:59:44;;;;;;;3.97;3.33;;;24.90;99.90;;;;;;4991330;28;20117;-68
2023/08/12 11:02:36;;;;;;;4.72;3.22;;;24.80;99.90;;;;;;4993311;28;20057;-68
2023/08/12 11:05:05;;;;;;;5.03;2.80;;;24.80;99.90;;;;;;4993741;28;20036;-68
2023/08/12 11:07:43;;;;;;;4.03;3.17;;;24.80;99.90;;;;;;4998928;28;20484;-68
2023/08/12 11:10:22;;;;;;;6.45;3.03;;;24.90;99.90;;;;;;4995746;28;20030;-67
2023/08/12 11:12:56;;;;;;;5.13;3.50;;;24.90;99.90;;;;;;4989660;28;20050;-68
2023/08/12 11:15:42;;;;;;;4.38;3.50;;;24.80;99.90;;;;;;4996566;28;20088;-68
2023/08/12 11:18:10;;;;;;;5.03;3.38;;;24.70;99.90;;;;;;4977962;28;20038;-68
2023/08/12 11:20:36;;;;;;;5.93;3.60;;;24.70;99.90;;;;;;4989087;28;20049;-69
2023/08/12 11:23:04;;;;;;;4.50;3.50;;;24.70;99.90;;;;;;4990934;28;20030;-68
2023/08/12 11:25:30;;;;;;;6.50;3.65;;;24.70;99.90;;;;;;4989821;28;20441;-68
2023/08/12 11:27:56;;;;;;;6.40;3.50;;;24.60;99.90;;;;;;4985512;28;20034;-68
2023/08/12 11:30:23;;;;;;;3.80;3.50;;;24.60;99.90;;;;;;4987859;28;20089;-69
2023/08/12 11:32:51;;;;;;;5.10;3.78;;;24.60;99.90;;;;;;4991133;28;20041;-68
2023/08/12 11:35:18;;;;;;;4.88;3.40;;;24.60;99.90;;;;;;4989813;28;20117;-68
2023/08/12 11:37:46;;;;;;;6.40;3.72;;;24.50;99.90;;;;;;4989763;28;20025;-69
2023/08/12 11:40:16;;;;;;;5.97;3.65;;;24.50;99.90;;;;;;4993971;28;20806;-69
2023/08/12 11:42:44;;;;;;;5.13;3.08;;;24.50;99.90;;;;;;4988005;28;20958;-69
2023/08/12 11:45:11;;;;;;;3.95;3.47;;;24.50;99.90;;;;;;4990502;28;20037;-68
2023/08/12 11:47:38;;;;;;;4.00;3.60;;;24.50;99.90;;;;;;4989468;28;20039;-69
2023/08/12 11:50:09;;;;;;;3.40;3.10;;;24.50;99.90;;;;;;4986077;28;20034;-69
2023/08/12 11:52:36;;;;;;;6.07;3.53;;;24.40;99.90;;;;;;4980191;28;20041;-69
2023/08/12 11:55:03;;;;;;;3.47;3.17;;;24.40;99.90;;;;;;4990544;28;20651;-69
2023/08/12 11:57:28;;;;;;;4.32;3.15;;;24.40;99.90;;;;;;4991561;28;20542;-69
2023/08/12 12:00:05;;;;;;;4.05;3.65;;;24.30;99.90;;;;;;4992951;28;20092;-69
2023/08/12 12:02:55;;;;;;;3.40;3.10;;;24.30;99.90;;;;;;4989939;28;20080;-68
2023/08/12 12:05:23;;;;;;;3.42;3.03;;;24.40;99.90;;;;;;4987110;28;20042;-69
2023/08/12 12:07:50;;;;;;;5.30;3.78;;;24.40;99.90;;;;;;4987726;28;20038;-68
2023/08/12 12:10:20;;;;;;;4.13;3.72;;;24.50;99.90;;;;;;4985745;28;20042;-68
2023/08/12 12:12:46;;;;;;;4.00;3.67;;;24.60;99.90;;;;;;4989139;28;20475;-67
2023/08/12 12:15:15;;;;;;;3.45;3.10;;;24.70;99.90;;;;;;4993500;28;20088;-68
2023/08/12 12:17:41;;;;;;;4.47;3.33;;;24.70;99.90;;;;;;4990468;28;20117;-69
2023/08/12 12:20:11;;;;;;;3.45;3.00;;;24.80;99.90;;;;;;4984545;28;20050;-69
2023/08/12 12:22:37;;;;;;;3.90;3.20;;;25.00;99.90;;;;;;4980675;28;20030;-69
2023/08/12 12:25:09;;;;;;;4.63;3.55;;;25.10;99.90;;;;;;4985455;28;20073;-68
2023/08/12 12:27:36;;;;;;;4.68;3.75;;;25.30;99.90;;;;;;4989788;28;20216;-69
2023/08/12 12:30:02;;;;;;;4.25;3.05;;;25.50;99.90;;;;;;4988763;28;20433;-67
2023/08/12 12:32:28;;;;;;;4.82;3.40;;;25.50;99.90;;;;;;4988546;28;20038;-67
2023/08/12 12:34:55;;;;;;;3.60;3.30;;;25.70;99.90;;;;;;4972045;28;20163;-68
2023/08/12 12:37:20;;;;;;;4.43;3.00;;;25.70;99.90;;;;;;4989616;28;20493;-68
2023/08/12 12:39:46;;;;;;;5.53;3.60;;;25.80;99.90;;;;;;4995673;28;20058;-68
2023/08/12 12:42:13;;;;;;;3.72;3.42;;;25.90;99.90;;;;;;4990528;28;20034;-68
2023/08/12 12:44:39;;;;;;;5.03;3.80;;;26.00;99.90;;;;;;4993928;28;20046;-68
2023/08/12 12:47:05;;;;;;;5.28;3.35;;;26.20;99.90;;;;;;4996073;28;20049;-68
2023/08/12 12:49:30;;;;;;;5.47;3.40;;;26.30;99.90;;;;;;4995289;28;20041;-68